createdAt,value
2023-05-06T00:02:26.427Z,85.90
2023-05-06T00:04:55.536Z,85.48
2023-05-06T00:07:24.457Z,85.61
2023-05-06T00:09:53.563Z,85.77
2023-05-06T00:12:22.298Z,85.18
2023-05-06T00:14:51.574Z,84.91
2023-05-06T00:17:21.105Z,85.18
2023-05-06T00:19:50.124Z,85.28
2023-05-06T00:22:19.040Z,85.30
2023-05-06T00:24:48.055Z,85.39
2023-05-06T00:27:16.838Z,85.08
2023-05-06T00:29:45.670Z,85.84
2023-05-06T00:32:14.474Z,85.40
2023-05-06T00:34:43.973Z,84.98
2023-05-06T00:37:12.825Z,85.36
2023-05-06T00:39:41.892Z,85.40
2023-05-06T00:42:11.171Z,85.35
2023-05-06T00:44:40.403Z,85.14
2023-05-06T00:47:09.988Z,85.30
2023-05-06T00:49:38.826Z,85.22
2023-05-06T00:52:08.233Z,84.81
2023-05-06T00:54:37.375Z,84.98
2023-05-06T00:57:06.405Z,85.48
2023-05-06T00:59:35.420Z,84.66
2023-05-06T01:02:05.142Z,84.53
2023-05-06T01:04:34.444Z,85.29
2023-05-06T01:07:29.476Z,85.68
2023-05-06T01:10:08.852Z,84.89
2023-05-06T01:13:05.301Z,85.37
2023-05-06T01:15:48.858Z,84.61
2023-05-06T01:18:21.511Z,84.98
2023-05-06T01:20:55.177Z,84.50
2023-05-06T01:23:24.008Z,84.39
2023-05-06T01:25:53.123Z,84.28
2023-05-06T01:28:22.392Z,84.20
2023-05-06T01:31:00.347Z,84.29
2023-05-06T01:33:44.595Z,84.03
2023-05-06T01:36:22.993Z,83.91
2023-05-06T01:39:09.587Z,84.19
2023-05-06T01:41:41.935Z,84.19
2023-05-06T01:44:13.187Z,84.37
2023-05-06T01:46:46.272Z,84.28
2023-05-06T01:49:16.933Z,84.26
2023-05-06T01:51:51.070Z,83.74
2023-05-06T01:54:20.257Z,83.35
2023-05-06T01:56:49.079Z,82.91
2023-05-06T01:59:18.195Z,82.41
2023-05-06T02:01:48.206Z,82.48
2023-05-06T02:04:17.170Z,81.77
2023-05-06T02:06:46.308Z,81.83
2023-05-06T02:09:18.458Z,82.06
2023-05-06T02:11:53.704Z,82.08
2023-05-06T02:14:22.589Z,82.32
2023-05-06T02:16:51.901Z,82.10
2023-05-06T02:19:22.840Z,81.38
2023-05-06T02:21:51.800Z,80.94
2023-05-06T02:24:20.707Z,81.48
2023-05-06T02:26:50.049Z,80.65
2023-05-06T02:29:19.007Z,79.68
2023-05-06T02:31:47.859Z,78.85
2023-05-06T02:34:18.445Z,79.07
2023-05-06T02:36:47.389Z,79.90
2023-05-06T02:39:17.374Z,80.25
2023-05-06T02:41:46.262Z,80.43
2023-05-06T02:44:15.048Z,79.10
2023-05-06T02:46:44.241Z,78.43
2023-05-06T02:49:14.448Z,80.19
2023-05-06T02:51:43.356Z,80.35
2023-05-06T02:54:12.497Z,77.74
2023-05-06T02:56:43.764Z,77.03
2023-05-06T02:59:12.653Z,76.23
2023-05-06T03:01:42.513Z,75.12
2023-05-06T03:04:11.674Z,73.93
2023-05-06T03:06:40.532Z,74.01
2023-05-06T03:09:10.386Z,73.51
2023-05-06T03:11:39.396Z,73.49
2023-05-06T03:14:08.602Z,71.51
2023-05-06T03:16:37.701Z,69.25
2023-05-06T03:19:07.147Z,69.92
2023-05-06T03:21:36.103Z,69.53
2023-05-06T03:24:05.260Z,67.35
2023-05-06T03:26:34.450Z,66.03
2023-05-06T03:29:04.475Z,66.51
2023-05-06T03:31:33.535Z,66.04
2023-05-06T03:34:04.097Z,65.33
2023-05-06T03:36:33.710Z,63.90
2023-05-06T03:39:02.664Z,61.57
2023-05-06T03:41:34.383Z,61.67
2023-05-06T03:44:03.370Z,62.18
2023-05-06T03:46:33.285Z,63.04
2023-05-06T03:49:03.411Z,61.74
2023-05-06T03:51:32.622Z,60.14
2023-05-06T03:54:02.627Z,61.09
2023-05-06T03:56:32.777Z,60.24
2023-05-06T03:59:01.869Z,58.62
2023-05-06T04:01:31.851Z,58.83
2023-05-06T04:04:01.915Z,59.22
2023-05-06T04:06:31.360Z,58.54
2023-05-06T04:09:00.189Z,58.60
2023-05-06T04:11:29.900Z,56.48
2023-05-06T04:14:02.328Z,56.34
2023-05-06T04:16:31.552Z,55.75
2023-05-06T04:19:00.358Z,56.07
2023-05-06T04:21:30.259Z,57.40
2023-05-06T04:24:05.247Z,58.41
2023-05-06T04:26:38.334Z,58.17
2023-05-06T04:29:07.649Z,57.42
2023-05-06T04:31:42.040Z,57.92
2023-05-06T04:34:13.924Z,57.49
2023-05-06T04:36:43.997Z,56.24
2023-05-06T04:39:37.664Z,54.61
2023-05-06T04:42:06.595Z,54.29
2023-05-06T04:44:43.681Z,54.83
2023-05-06T04:47:13.403Z,53.10
2023-05-06T04:49:45.486Z,54.15
2023-05-06T04:52:15.267Z,53.35
2023-05-06T04:54:45.558Z,52.11
2023-05-06T04:57:15.077Z,50.31
2023-05-06T04:59:46.868Z,51.42
2023-05-06T05:02:16.652Z,51.82
2023-05-06T05:04:47.027Z,51.81
2023-05-06T05:07:16.842Z,50.98
2023-05-06T05:09:46.152Z,48.26
2023-05-06T05:12:14.925Z,49.83
2023-05-06T05:14:48.126Z,50.14
2023-05-06T05:17:17.367Z,48.20
2023-05-06T05:19:48.149Z,47.86
2023-05-06T05:22:18.326Z,45.25
2023-05-06T05:24:47.513Z,42.30
2023-05-06T05:27:16.316Z,40.08
2023-05-06T05:29:45.628Z,37.10
2023-05-06T05:32:14.668Z,36.53
2023-05-06T05:34:43.925Z,35.24
2023-05-06T05:37:12.898Z,34.15
2023-05-06T05:39:43.319Z,32.81
2023-05-06T05:42:13.692Z,32.64
2023-05-06T05:44:44.867Z,32.16
2023-05-06T05:47:13.896Z,30.14
2023-05-06T05:49:43.585Z,30.30
2023-05-06T05:52:12.761Z,29.85
2023-05-06T05:54:41.865Z,29.61
2023-05-06T05:57:11.225Z,28.93
2023-05-06T05:59:41.005Z,28.93
2023-05-06T06:02:11.137Z,29.31
2023-05-06T06:04:40.238Z,28.06
2023-05-06T06:07:10.025Z,27.97
2023-05-06T06:09:42.565Z,27.71
2023-05-06T06:12:11.340Z,27.75
2023-05-06T06:14:42.219Z,27.58
2023-05-06T06:17:11.732Z,27.41
2023-05-06T06:19:40.514Z,25.59
2023-05-06T06:22:09.575Z,25.80
2023-05-06T06:24:38.388Z,25.29
2023-05-06T06:27:07.256Z,25.69
2023-05-06T06:29:36.186Z,25.56
2023-05-06T06:32:05.440Z,25.27
2023-05-06T06:34:34.451Z,25.53
2023-05-06T06:37:07.351Z,24.98
2023-05-06T06:39:36.754Z,24.27
2023-05-06T06:42:07.482Z,23.92
2023-05-06T06:44:41.591Z,23.29
2023-05-06T06:47:10.366Z,23.77
2023-05-06T06:49:40.851Z,23.79
2023-05-06T06:52:10.363Z,23.55
2023-05-06T06:54:39.613Z,23.07
2023-05-06T06:57:08.594Z,23.31
2023-05-06T06:59:37.477Z,23.47
2023-05-06T07:02:07.539Z,23.42
2023-05-06T07:04:36.996Z,23.17
2023-05-06T07:07:06.130Z,23.45
2023-05-06T07:09:35.786Z,23.32
2023-05-06T07:12:05.251Z,23.16
2023-05-06T07:14:34.314Z,23.38
2023-05-06T07:17:03.298Z,23.22
2023-05-06T07:19:32.231Z,23.38
2023-05-06T07:22:01.550Z,23.02
2023-05-06T07:24:30.582Z,23.46
2023-05-06T07:26:59.718Z,23.60
2023-05-06T07:29:28.746Z,22.93
2023-05-06T07:31:57.578Z,23.31
2023-05-06T07:34:26.490Z,23.17
2023-05-06T07:36:55.482Z,23.38
2023-05-06T07:39:24.339Z,23.79
2023-05-06T07:41:53.301Z,23.67
2023-05-06T07:44:22.169Z,23.64
2023-05-06T07:46:51.698Z,23.74
2023-05-06T07:49:20.687Z,23.29
2023-05-06T07:51:49.530Z,23.55
2023-05-06T07:54:18.403Z,23.95
2023-05-06T07:56:47.283Z,24.02
2023-05-06T07:59:16.067Z,23.50
2023-05-06T08:01:45.738Z,24.32
2023-05-06T08:04:14.899Z,25.15
2023-05-06T08:06:44.126Z,26.31
2023-05-06T08:09:19.747Z,27.31
2023-05-06T08:11:51.773Z,27.84
2023-05-06T08:14:20.631Z,28.29
2023-05-06T08:16:50.485Z,28.84
2023-05-06T08:19:19.446Z,29.16
2023-05-06T08:21:49.311Z,29.38
2023-05-06T08:24:18.218Z,29.72
2023-05-06T08:26:47.097Z,29.83
2023-05-06T08:29:15.862Z,29.97
2023-05-06T08:31:44.733Z,30.41
2023-05-06T08:34:13.558Z,30.47
2023-05-06T08:36:42.740Z,30.71
2023-05-06T08:39:12.202Z,30.88
2023-05-06T08:41:42.417Z,31.13
2023-05-06T08:44:14.259Z,31.29
2023-05-06T08:46:43.231Z,31.50
2023-05-06T08:49:12.428Z,31.46
2023-05-06T08:51:44.860Z,31.50
2023-05-06T08:54:14.465Z,31.54
2023-05-06T08:56:48.338Z,31.77
2023-05-06T08:59:18.802Z,31.88
2023-05-06T09:01:49.598Z,32.24
2023-05-06T09:04:18.998Z,32.42
2023-05-06T09:06:47.912Z,32.46
2023-05-06T09:09:18.109Z,32.51
2023-05-06T09:11:54.177Z,32.79
2023-05-06T09:14:23.423Z,32.84
2023-05-06T09:16:53.711Z,32.96
2023-05-06T09:19:23.924Z,32.94
2023-05-06T09:21:53.048Z,33.00
2023-05-06T09:24:22.309Z,32.74
2023-05-06T09:26:56.006Z,32.73
2023-05-06T09:29:24.898Z,32.95
2023-05-06T09:31:56.985Z,32.92
2023-05-06T09:34:25.902Z,33.18
2023-05-06T09:36:57.671Z,33.15
2023-05-06T09:39:27.896Z,33.35
2023-05-06T09:41:57.176Z,33.26
2023-05-06T09:44:27.713Z,33.45
2023-05-06T09:46:56.594Z,33.45
2023-05-06T09:49:25.638Z,33.64
2023-05-06T09:51:54.778Z,33.76
2023-05-06T09:54:25.492Z,33.93
2023-05-06T09:56:56.069Z,33.92
2023-05-06T09:59:29.945Z,33.98
2023-05-06T10:02:00.526Z,33.93
2023-05-06T10:04:32.216Z,33.89
2023-05-06T10:07:04.581Z,33.98
2023-05-06T10:09:34.103Z,33.84
2023-05-06T10:12:03.296Z,33.97
2023-05-06T10:14:32.212Z,33.88
2023-05-06T10:17:01.687Z,33.92
2023-05-06T10:19:32.292Z,33.78
2023-05-06T10:22:50.146Z,33.98
2023-05-06T10:25:31.126Z,33.98
2023-05-06T10:28:03.002Z,33.96
2023-05-06T10:30:35.205Z,33.86
2023-05-06T10:33:11.322Z,34.08
2023-05-06T10:35:43.136Z,34.08
2023-05-06T10:38:42.089Z,33.98
2023-05-06T10:41:11.859Z,34.30
2023-05-06T10:43:43.469Z,34.16
2023-05-06T10:46:15.758Z,34.07
2023-05-06T10:49:11.717Z,34.36
2023-05-06T10:51:48.912Z,34.13
2023-05-06T10:54:20.473Z,34.22
2023-05-06T10:56:49.377Z,34.34
2023-05-06T10:59:31.739Z,34.48
2023-05-06T11:02:05.275Z,34.42
2023-05-06T11:04:34.880Z,34.58
2023-05-06T11:07:11.821Z,34.66
2023-05-06T11:10:06.672Z,34.80
2023-05-06T11:12:56.274Z,34.66
2023-05-06T11:15:39.676Z,34.79
2023-05-06T11:18:30.020Z,34.87
2023-05-06T11:21:01.658Z,34.72
2023-05-06T11:23:43.894Z,35.12
2023-05-06T11:26:13.993Z,34.87
2023-05-06T11:28:51.066Z,34.99
2023-05-06T11:31:22.844Z,35.28
2023-05-06T11:33:53.719Z,35.13
2023-05-06T11:36:22.580Z,35.25
2023-05-06T11:38:53.251Z,35.16
2023-05-06T11:41:23.763Z,35.01
2023-05-06T11:43:54.092Z,35.35
2023-05-06T11:46:24.770Z,35.37
2023-05-06T11:48:53.803Z,35.62
2023-05-06T11:51:23.784Z,35.41
2023-05-06T11:53:53.924Z,35.43
2023-05-06T11:56:22.857Z,35.56
2023-05-06T11:58:53.179Z,35.59
2023-05-06T12:01:22.707Z,35.60
2023-05-06T12:03:56.753Z,35.42
2023-05-06T12:06:38.914Z,35.68
2023-05-06T12:09:11.355Z,35.77
2023-05-06T12:11:42.627Z,35.90
2023-05-06T12:14:13.622Z,36.09
2023-05-06T12:16:42.941Z,36.61
2023-05-06T12:19:12.055Z,39.13
2023-05-06T12:21:40.848Z,41.95
2023-05-06T12:24:09.713Z,45.23
2023-05-06T12:26:49.832Z,47.20
2023-05-06T12:29:19.036Z,48.32
2023-05-06T12:31:49.110Z,49.36
2023-05-06T12:34:19.257Z,50.41
2023-05-06T12:36:48.186Z,51.39
2023-05-06T12:39:18.122Z,51.95
2023-05-06T12:41:47.470Z,53.09
2023-05-06T12:44:35.471Z,53.01
2023-05-06T12:47:09.813Z,54.12
2023-05-06T12:49:50.291Z,54.55
2023-05-06T12:52:21.457Z,55.23
2023-05-06T12:54:53.355Z,55.73
2023-05-06T12:57:23.193Z,55.96
2023-05-06T12:59:52.162Z,56.87
2023-05-06T13:02:21.996Z,57.40
2023-05-06T13:04:51.500Z,57.69
2023-05-06T13:07:20.392Z,57.54
2023-05-06T13:09:49.162Z,58.14
2023-05-06T13:12:18.003Z,58.06
2023-05-06T13:14:46.876Z,58.47
2023-05-06T13:17:15.956Z,59.33
2023-05-06T13:19:44.972Z,59.40
2023-05-06T13:22:14.071Z,59.48
2023-05-06T13:24:43.120Z,59.38
2023-05-06T13:27:12.211Z,59.19
2023-05-06T13:29:41.124Z,59.51
2023-05-06T13:32:10.324Z,59.66
2023-05-06T13:34:39.149Z,60.40
2023-05-06T13:37:08.345Z,60.70
2023-05-06T13:39:37.377Z,61.05
2023-05-06T13:42:08.149Z,60.85
2023-05-06T13:44:37.751Z,60.73
2023-05-06T13:47:06.878Z,61.07
2023-05-06T13:49:35.827Z,61.26
2023-05-06T13:52:07.909Z,61.35
2023-05-06T13:54:37.476Z,60.96
2023-05-06T13:57:06.651Z,61.58
2023-05-06T13:59:35.746Z,61.35
2023-05-06T14:02:08.752Z,62.35
2023-05-06T14:04:39.106Z,63.27
2023-05-06T14:07:08.140Z,64.41
2023-05-06T14:09:36.983Z,65.25
2023-05-06T14:12:06.494Z,65.81
2023-05-06T14:14:35.514Z,67.26
2023-05-06T14:17:04.420Z,67.78
2023-05-06T14:19:33.385Z,68.13
2023-05-06T14:22:02.361Z,68.87
2023-05-06T14:24:31.401Z,69.69
2023-05-06T14:27:00.495Z,70.27
2023-05-06T14:29:29.532Z,70.74
2023-05-06T14:31:58.356Z,70.96
2023-05-06T14:34:27.828Z,71.27
2023-05-06T14:36:56.658Z,71.55
2023-05-06T14:39:25.589Z,71.58
2023-05-06T14:41:54.440Z,71.73
2023-05-06T14:44:23.393Z,72.23
2023-05-06T14:46:52.391Z,72.43
2023-05-06T14:49:21.822Z,72.85
2023-05-06T14:51:50.748Z,72.65
2023-05-06T14:54:20.410Z,72.81
2023-05-06T14:56:50.093Z,73.06
2023-05-06T14:59:19.758Z,73.41
2023-05-06T15:01:49.406Z,73.72
2023-05-06T15:04:18.344Z,74.34
2023-05-06T15:06:47.179Z,74.28
2023-05-06T15:09:16.071Z,74.79
2023-05-06T15:11:46.545Z,75.20
2023-05-06T15:14:15.378Z,75.02
2023-05-06T15:16:44.280Z,75.23
2023-05-06T15:19:13.366Z,75.26
2023-05-06T15:21:42.209Z,75.72
2023-05-06T15:24:11.052Z,75.63
2023-05-06T15:26:39.878Z,76.04
2023-05-06T15:29:09.547Z,76.04
2023-05-06T15:31:41.650Z,75.71
2023-05-06T15:34:12.007Z,75.60
2023-05-06T15:36:44.651Z,76.00
2023-05-06T15:39:13.924Z,75.99
2023-05-06T15:41:43.060Z,76.09
2023-05-06T15:44:15.960Z,76.36
2023-05-06T15:46:45.354Z,76.47
2023-05-06T15:49:45.670Z,76.66
2023-05-06T15:52:04.373Z,76.38
2023-05-06T15:54:34.788Z,76.64
2023-05-06T15:57:07.101Z,76.44
2023-05-06T15:59:36.706Z,76.45
2023-05-06T16:04:38.730Z,76.40
2023-05-06T16:07:08.280Z,76.42
2023-05-06T16:09:37.663Z,76.22
2023-05-06T16:12:07.481Z,76.51
2023-05-06T16:14:36.373Z,77.17
2023-05-06T16:17:05.776Z,76.80
2023-05-06T16:19:35.676Z,77.48
2023-05-06T16:22:05.211Z,77.97
2023-05-06T16:24:34.131Z,77.46
2023-05-06T16:27:03.027Z,77.51
2023-05-06T16:29:32.221Z,77.52
2023-05-06T16:32:01.334Z,77.37
2023-05-06T16:34:30.205Z,76.89
2023-05-06T16:37:01.041Z,77.56
2023-05-06T16:39:31.263Z,77.71
2023-05-06T16:42:00.190Z,77.05
2023-05-06T16:44:30.002Z,77.54
2023-05-06T16:46:58.815Z,77.38
2023-05-06T16:49:30.307Z,77.50
2023-05-06T16:52:01.094Z,77.19
2023-05-06T16:54:30.052Z,77.59
2023-05-06T16:56:58.852Z,77.06
2023-05-06T16:59:27.697Z,77.11
2023-05-06T17:01:57.804Z,77.59
2023-05-06T17:04:26.868Z,77.58
2023-05-06T17:06:58.703Z,77.22
2023-05-06T17:09:27.488Z,77.53
2023-05-06T17:11:56.322Z,77.79
2023-05-06T17:14:25.145Z,77.05
2023-05-06T17:16:54.001Z,77.44
2023-05-06T17:19:23.046Z,76.85
2023-05-06T17:21:51.928Z,77.46
2023-05-06T17:24:22.691Z,76.71
2023-05-06T17:26:51.536Z,77.08
2023-05-06T17:29:22.689Z,76.97
2023-05-06T17:31:51.589Z,76.96
2023-05-06T17:36:55.417Z,76.72
2023-05-06T17:39:24.196Z,76.48
2023-05-06T17:41:53.655Z,76.84
2023-05-06T17:44:22.755Z,76.75
2023-05-06T17:46:51.703Z,76.39
2023-05-06T17:49:20.608Z,75.77
2023-05-06T17:51:51.625Z,76.00
2023-05-06T17:54:20.428Z,76.24
2023-05-06T17:56:53.459Z,76.39
2023-05-06T17:59:22.592Z,75.86
2023-05-06T18:01:52.389Z,75.53
2023-05-06T18:04:21.517Z,75.32
2023-05-06T18:06:50.382Z,75.75
2023-05-06T18:09:19.193Z,75.22
2023-05-06T18:11:48.055Z,74.90
2023-05-06T18:14:16.942Z,74.91
2023-05-06T18:16:46.340Z,75.23
2023-05-06T18:19:15.429Z,74.85
2023-05-06T18:21:44.185Z,75.23
2023-05-06T18:24:16.387Z,75.00
2023-05-06T18:26:46.274Z,74.73
2023-05-06T18:29:15.820Z,74.74
2023-05-06T18:31:44.796Z,74.86
2023-05-06T18:34:14.342Z,74.42
2023-05-06T18:36:43.276Z,74.12
2023-05-06T18:39:12.535Z,74.31
2023-05-06T18:41:41.965Z,74.20
2023-05-06T18:44:10.729Z,73.87
2023-05-06T18:46:39.566Z,74.38
2023-05-06T18:49:08.825Z,74.16
2023-05-06T18:51:37.803Z,74.34
2023-05-06T18:54:07.667Z,73.99
2023-05-06T18:56:37.505Z,74.17
2023-05-06T18:59:06.330Z,73.62
2023-05-06T19:01:35.742Z,73.94
2023-05-06T19:04:05.213Z,73.95
2023-05-06T19:06:34.122Z,74.08
2023-05-06T19:09:04.422Z,73.74
2023-05-06T19:11:33.366Z,73.97
2023-05-06T19:14:02.156Z,73.82
2023-05-06T19:16:31.098Z,73.73
2023-05-06T19:18:59.966Z,73.37
2023-05-06T19:21:28.973Z,73.59
2023-05-06T19:24:00.359Z,73.45
2023-05-06T19:26:29.570Z,73.53
2023-05-06T19:28:58.385Z,73.37
2023-05-06T19:31:27.142Z,73.65
2023-05-06T19:33:56.117Z,73.57
2023-05-06T19:36:24.901Z,73.33
2023-05-06T19:38:53.688Z,73.23
2023-05-06T19:41:22.412Z,73.29
2023-05-06T19:43:53.047Z,73.42
2023-05-06T19:46:21.948Z,73.25
2023-05-06T19:48:50.806Z,73.24
2023-05-06T19:51:19.717Z,73.08
2023-05-06T19:53:50.802Z,73.18
2023-05-06T19:56:20.783Z,73.37
2023-05-06T19:58:51.652Z,73.09
2023-05-06T20:01:24.441Z,72.96
2023-05-06T20:03:53.466Z,72.89
2023-05-06T20:06:22.225Z,72.92
2023-05-06T20:08:51.109Z,73.00
2023-05-06T20:11:20.033Z,73.39
2023-05-06T20:13:48.833Z,72.83
2023-05-06T20:16:17.806Z,73.09
2023-05-06T20:18:48.252Z,73.10
2023-05-06T20:21:17.294Z,72.65
2023-05-06T20:23:46.144Z,73.06
2023-05-06T20:26:14.899Z,72.53
2023-05-06T20:28:43.678Z,72.73
2023-05-06T20:31:12.515Z,72.58
2023-05-06T20:33:41.506Z,72.56
2023-05-06T20:36:10.380Z,72.52
2023-05-06T20:38:39.131Z,72.34
2023-05-06T20:41:07.972Z,72.70
2023-05-06T20:43:37.001Z,72.64
2023-05-06T20:46:06.275Z,72.51
2023-05-06T20:48:35.100Z,72.36
2023-05-06T20:51:03.964Z,72.54
2023-05-06T20:53:33.249Z,72.54
2023-05-06T20:56:02.261Z,72.62
2023-05-06T20:58:32.053Z,72.54
2023-05-06T21:01:01.808Z,72.46
2023-05-06T21:03:31.122Z,72.53
2023-05-06T21:05:59.987Z,72.53
2023-05-06T21:08:31.881Z,72.69
2023-05-06T21:11:00.870Z,72.36
2023-05-06T21:13:29.696Z,72.29
2023-05-06T21:15:58.508Z,73.08
2023-05-06T21:18:27.441Z,72.61
2023-05-06T21:20:56.558Z,72.77
2023-05-06T21:23:25.461Z,72.64
2023-05-06T21:25:54.463Z,72.79
2023-05-06T21:28:23.343Z,72.56
2023-05-06T21:30:52.301Z,72.68
2023-05-06T21:33:21.105Z,72.80
2023-05-06T21:35:49.930Z,72.50
2023-05-06T21:38:19.244Z,72.40
2023-05-06T21:40:48.101Z,72.44
2023-05-06T21:43:18.559Z,72.63
2023-05-06T21:45:47.388Z,72.73
2023-05-06T21:48:16.235Z,72.41
2023-05-06T21:50:46.374Z,72.50
2023-05-06T21:53:15.179Z,72.37
2023-05-06T21:55:44.098Z,72.24
2023-05-06T21:58:14.034Z,72.13
2023-05-06T22:00:43.665Z,71.97
2023-05-06T22:03:13.214Z,72.08
2023-05-06T22:05:42.140Z,71.98
2023-05-06T22:08:11.354Z,71.99
2023-05-06T22:10:40.103Z,72.04
2023-05-06T22:13:09.209Z,72.13
2023-05-06T22:15:38.006Z,72.34
2023-05-06T22:18:09.198Z,72.04
2023-05-06T22:20:38.261Z,71.95
2023-05-06T22:23:07.056Z,71.76
2023-05-06T22:25:36.007Z,71.70
2023-05-06T22:28:05.940Z,71.26
2023-05-06T22:30:34.865Z,71.18
2023-05-06T22:33:03.781Z,70.97
2023-05-06T22:35:32.922Z,70.73
2023-05-06T22:38:01.770Z,70.88
2023-05-06T22:40:30.549Z,71.20
2023-05-06T22:42:59.437Z,70.73
2023-05-06T22:45:28.307Z,70.49
2023-05-06T22:47:57.467Z,70.22
2023-05-06T22:50:26.378Z,70.38
2023-05-06T22:52:55.227Z,70.39
2023-05-06T22:55:23.915Z,70.46
2023-05-06T22:57:54.466Z,69.99
2023-05-06T23:00:24.867Z,70.22
2023-05-06T23:02:53.949Z,70.02
2023-05-06T23:05:22.625Z,69.54
2023-05-06T23:07:51.521Z,69.09
2023-05-06T23:10:20.486Z,69.51
2023-05-06T23:12:49.516Z,69.55
2023-05-06T23:15:18.621Z,69.06
2023-05-06T23:17:47.864Z,69.39
2023-05-06T23:20:17.903Z,69.24
2023-05-06T23:22:46.759Z,69.18
2023-05-06T23:25:16.011Z,68.83
2023-05-06T23:27:45.255Z,68.61
2023-05-06T23:30:14.510Z,68.58
2023-05-06T23:32:43.512Z,67.93
2023-05-06T23:35:12.955Z,68.47
2023-05-06T23:37:42.055Z,68.31
2023-05-06T23:40:13.114Z,68.18
2023-05-06T23:42:42.215Z,68.49
2023-05-06T23:45:12.382Z,68.00
2023-05-06T23:47:41.587Z,68.07
2023-05-06T23:50:10.920Z,67.70
2023-05-06T23:52:40.079Z,67.90
2023-05-06T23:55:09.518Z,68.16
2023-05-06T23:57:38.953Z,68.35
